Destinations Humberto Delgado Airport (Lisbon Portela Airport)

Humberto Delgado Airport (Lisbon Portela Airport) (LPPT / LIS)

Flights to Humberto Delgado Airport (Lisbon Portela Airport)

Flight number From ETE Dispatch
SPY-2434 EGPH Edinburgh Airport 03:05

Flights from Humberto Delgado Airport (Lisbon Portela Airport)

Flight number To ETE Dispatch
SPY-2435 EGPH Edinburgh Airport 03:05
About

Humberto Delgado Airport (Lisbon Portela Airport) facts

Humberto Delgado Airport (Lisbon Portela Airport) is located in Lisbon at an elevation of 114.0 meters or 374 feet.

Currently, Speedy Airlines serves 2 flights to and from Humberto Delgado Airport (Lisbon Portela Airport).

Detailed airport info

Route map

Weather

Current weather

METAR

METAR

Metar data retrieved Sunday, 21 July 2024 at 20:25 UTC

LPPT 212000Z 31014KT 9999 FEW025 20/13 Q1015
Wind Temperature
14 kt 20c